createdAt,value
2024-01-27T00:00:39.260Z,2.60
2024-01-27T00:03:07.061Z,2.42
2024-01-27T00:05:34.645Z,2.85
2024-01-27T00:08:02.184Z,3.05
2024-01-27T00:10:29.939Z,3.00
2024-01-27T00:12:59.040Z,2.62
2024-01-27T00:15:26.545Z,2.78
2024-01-27T00:17:54.344Z,3.45
2024-01-27T00:20:26.180Z,1.80
2024-01-27T00:22:53.915Z,1.37
2024-01-27T00:25:21.494Z,1.55
2024-01-27T00:27:49.011Z,1.33
2024-01-27T00:30:16.812Z,1.42
2024-01-27T00:32:47.518Z,1.62
2024-01-27T00:35:15.940Z,1.40
2024-01-27T00:37:43.544Z,1.10
2024-01-27T00:40:13.107Z,0.60
2024-01-27T00:42:40.094Z,0.75
2024-01-27T00:45:08.002Z,0.55
2024-01-27T00:47:35.810Z,0.70
2024-01-27T00:50:02.942Z,0.82
2024-01-27T00:52:32.708Z,0.88
2024-01-27T00:55:00.218Z,0.43
2024-01-27T00:57:29.230Z,0.65
2024-01-27T00:59:56.534Z,0.90
2024-01-27T01:02:23.997Z,1.42
2024-01-27T01:04:51.537Z,1.00
2024-01-27T01:07:18.702Z,0.98
2024-01-27T01:09:47.061Z,0.68
2024-01-27T01:12:16.112Z,0.93
2024-01-27T01:14:45.151Z,0.88
2024-01-27T01:17:12.279Z,0.65
2024-01-27T01:19:40.171Z,0.90
2024-01-27T01:22:11.013Z,1.00
2024-01-27T01:24:39.386Z,0.77
2024-01-27T01:27:07.137Z,0.70
2024-01-27T01:29:36.285Z,0.80
2024-01-27T01:32:04.049Z,1.20
2024-01-27T01:34:31.413Z,0.80
2024-01-27T01:36:59.866Z,0.60
2024-01-27T01:39:26.838Z,0.93
2024-01-27T01:41:53.929Z,0.68
2024-01-27T01:44:22.368Z,0.55
2024-01-27T01:46:49.407Z,1.10
2024-01-27T01:49:18.933Z,1.30
2024-01-27T01:51:46.309Z,0.60
2024-01-27T01:54:13.610Z,0.50
2024-01-27T01:56:40.717Z,0.70
2024-01-27T01:59:14.096Z,0.45
2024-01-27T02:01:46.183Z,0.50
2024-01-27T02:04:13.808Z,0.62
2024-01-27T02:06:41.464Z,0.20
2024-01-27T02:09:08.523Z,0.32
2024-01-27T02:11:36.465Z,0.55
2024-01-27T02:14:03.484Z,0.25
2024-01-27T02:16:31.976Z,0.47
2024-01-27T02:19:00.283Z,0.60
2024-01-27T02:21:27.430Z,0.55
2024-01-27T02:23:55.277Z,0.40
2024-01-27T02:26:22.576Z,0.68
2024-01-27T02:28:50.018Z,0.13
2024-01-27T02:31:16.943Z,0.35
2024-01-27T02:33:45.242Z,0.30
2024-01-27T02:36:12.416Z,0.30
2024-01-27T02:38:39.591Z,0.85
2024-01-27T02:41:07.338Z,0.30
2024-01-27T02:43:34.785Z,0.10
2024-01-27T02:46:02.857Z,0.20
2024-01-27T02:48:31.741Z,0.40
2024-01-27T02:50:58.836Z,0.35
2024-01-27T02:53:26.266Z,0.37
2024-01-27T02:55:53.477Z,0.35
2024-01-27T02:58:20.944Z,0.40
2024-01-27T03:00:47.871Z,0.65
2024-01-27T03:03:16.467Z,0.47
2024-01-27T03:05:44.221Z,0.20
2024-01-27T03:08:11.433Z,0.55
2024-01-27T03:10:40.229Z,0.55
2024-01-27T03:13:07.810Z,0.60
2024-01-27T03:15:34.924Z,0.37
2024-01-27T03:18:03.144Z,0.57
2024-01-27T03:20:32.217Z,0.20
2024-01-27T03:23:00.771Z,0.30
2024-01-27T03:25:28.139Z,0.57
2024-01-27T03:27:56.771Z,0.40
2024-01-27T03:30:24.294Z,0.37
2024-01-27T03:32:51.537Z,0.30
2024-01-27T03:35:19.144Z,0.70
2024-01-27T03:37:46.523Z,0.62
2024-01-27T03:40:14.370Z,0.62
2024-01-27T03:42:41.283Z,0.57
2024-01-27T03:45:09.095Z,0.40
2024-01-27T03:47:36.409Z,1.05
2024-01-27T03:50:04.089Z,0.70
2024-01-27T03:52:30.999Z,0.43
2024-01-27T03:55:00.647Z,0.45
2024-01-27T03:57:28.139Z,0.50
2024-01-27T03:59:55.124Z,0.52
2024-01-27T04:02:22.942Z,1.12
2024-01-27T04:04:52.063Z,1.40
2024-01-27T04:07:19.526Z,0.90
2024-01-27T04:09:46.601Z,0.68
2024-01-27T04:12:14.483Z,0.70
2024-01-27T04:14:41.773Z,0.60
2024-01-27T04:17:08.865Z,0.82
2024-01-27T04:19:38.045Z,1.37
2024-01-27T04:22:05.589Z,0.70
2024-01-27T04:24:32.659Z,0.35
2024-01-27T04:27:00.768Z,0.52
2024-01-27T04:29:27.927Z,0.55
2024-01-27T04:31:55.316Z,0.40
2024-01-27T04:34:22.677Z,1.00
2024-01-27T04:36:50.564Z,1.00
2024-01-27T04:39:18.065Z,0.62
2024-01-27T04:41:45.398Z,0.93
2024-01-27T04:44:13.922Z,0.47
2024-01-27T04:46:41.103Z,0.80
2024-01-27T04:49:08.445Z,0.95
2024-01-27T04:51:35.607Z,0.50
2024-01-27T04:54:11.109Z,0.62
2024-01-27T04:56:38.322Z,1.25
2024-01-27T04:59:05.266Z,0.55
2024-01-27T05:01:33.214Z,0.90
2024-01-27T05:04:00.994Z,1.08
2024-01-27T05:06:28.147Z,1.25
2024-01-27T05:08:55.120Z,0.47
2024-01-27T05:11:33.067Z,0.80
2024-01-27T05:14:03.332Z,0.88
2024-01-27T05:16:30.884Z,0.57
2024-01-27T05:18:58.019Z,0.82
2024-01-27T05:21:25.657Z,0.47
2024-01-27T05:23:53.854Z,0.98
2024-01-27T05:26:22.423Z,0.55
2024-01-27T05:28:49.431Z,0.50
2024-01-27T05:31:18.115Z,1.30
2024-01-27T05:33:45.217Z,1.10
2024-01-27T05:36:15.721Z,0.60
2024-01-27T05:38:43.425Z,0.73
2024-01-27T05:41:10.566Z,0.80
2024-01-27T05:43:38.806Z,0.90
2024-01-27T05:46:10.179Z,0.85
2024-01-27T05:48:37.260Z,0.98
2024-01-27T05:51:04.518Z,0.55
2024-01-27T05:53:31.790Z,0.73
2024-01-27T05:55:58.766Z,1.00
2024-01-27T05:58:26.275Z,0.50
2024-01-27T06:00:54.989Z,1.02
2024-01-27T06:03:22.852Z,0.93
2024-01-27T06:05:50.474Z,0.77
2024-01-27T06:08:19.486Z,0.30
2024-01-27T06:10:48.178Z,0.93
2024-01-27T06:13:15.162Z,0.85
2024-01-27T06:15:42.715Z,0.77
2024-01-27T06:18:11.453Z,0.40
2024-01-27T06:20:41.373Z,0.50
2024-01-27T06:23:09.670Z,0.75
2024-01-27T06:25:36.960Z,0.93
2024-01-27T06:28:04.767Z,0.70
2024-01-27T06:30:31.740Z,1.05
2024-01-27T06:32:59.669Z,0.85
2024-01-27T06:35:27.166Z,0.22
2024-01-27T06:37:56.188Z,0.93
2024-01-27T06:40:23.901Z,0.85
2024-01-27T06:42:53.520Z,0.80
2024-01-27T06:45:20.570Z,1.37
2024-01-27T06:47:48.336Z,0.88
2024-01-27T06:50:16.384Z,0.60
2024-01-27T06:52:44.941Z,1.58
2024-01-27T06:55:12.269Z,0.68
2024-01-27T06:57:42.003Z,0.30
2024-01-27T07:00:09.730Z,1.02
2024-01-27T07:02:36.959Z,0.98
2024-01-27T07:05:04.318Z,0.80
2024-01-27T07:07:32.950Z,0.80
2024-01-27T07:10:00.327Z,0.70
2024-01-27T07:12:27.452Z,0.47
2024-01-27T07:14:57.960Z,0.90
2024-01-27T07:17:25.613Z,0.80
2024-01-27T07:19:53.647Z,0.80
2024-01-27T07:22:23.974Z,1.10
2024-01-27T07:24:53.854Z,0.43
2024-01-27T07:27:23.673Z,0.75
2024-01-27T07:29:50.728Z,0.60
2024-01-27T07:32:18.030Z,1.25
2024-01-27T07:34:46.960Z,0.57
2024-01-27T07:37:14.053Z,0.47
2024-01-27T07:39:41.740Z,0.75
2024-01-27T07:42:11.436Z,0.60
2024-01-27T07:44:38.433Z,0.88
2024-01-27T07:47:05.630Z,0.82
2024-01-27T07:49:33.149Z,1.02
2024-01-27T07:52:07.406Z,0.60
2024-01-27T07:54:40.093Z,0.60
2024-01-27T07:57:08.256Z,1.17
2024-01-27T07:59:35.896Z,0.52
2024-01-27T08:02:03.855Z,0.45
2024-01-27T08:04:31.242Z,0.50
2024-01-27T08:06:58.263Z,0.57
2024-01-27T08:09:26.810Z,0.80
2024-01-27T08:11:54.507Z,0.60
2024-01-27T08:14:22.302Z,1.00
2024-01-27T08:16:49.365Z,0.50
2024-01-27T08:19:22.163Z,1.12
2024-01-27T08:21:49.374Z,1.10
2024-01-27T08:24:16.828Z,0.73
2024-01-27T08:26:43.903Z,0.80
2024-01-27T08:29:11.120Z,0.80
2024-01-27T08:31:39.943Z,1.12
2024-01-27T08:34:08.035Z,0.57
2024-01-27T08:36:35.889Z,1.00
2024-01-27T08:39:04.265Z,1.08
2024-01-27T08:41:31.263Z,0.50
2024-01-27T08:43:58.862Z,0.43
2024-01-27T08:46:26.086Z,1.17
2024-01-27T08:48:53.048Z,0.57
2024-01-27T08:51:20.101Z,0.62
2024-01-27T08:53:49.954Z,0.43
2024-01-27T08:56:18.857Z,0.60
2024-01-27T08:58:53.875Z,0.93
2024-01-27T09:01:21.596Z,0.50
2024-01-27T09:03:48.566Z,0.90
2024-01-27T09:06:16.041Z,0.70
2024-01-27T09:08:43.517Z,1.25
2024-01-27T09:11:10.490Z,0.47
2024-01-27T09:13:40.364Z,0.57
2024-01-27T09:16:08.597Z,1.08
2024-01-27T09:18:35.773Z,0.47
2024-01-27T09:21:03.023Z,1.37
2024-01-27T09:23:30.291Z,0.88
2024-01-27T09:25:57.201Z,0.93
2024-01-27T09:28:25.030Z,0.82
2024-01-27T09:30:52.504Z,0.70
2024-01-27T09:33:21.157Z,0.98
2024-01-27T09:35:48.198Z,0.70
2024-01-27T09:38:15.620Z,0.85
2024-01-27T09:40:43.634Z,0.90
2024-01-27T09:43:14.368Z,2.00
2024-01-27T09:45:43.745Z,1.33
2024-01-27T09:48:13.270Z,1.33
2024-01-27T09:50:42.527Z,1.30
2024-01-27T09:53:11.183Z,0.93
2024-01-27T09:55:38.252Z,0.88
2024-01-27T09:58:06.620Z,1.20
2024-01-27T10:00:37.212Z,0.62
2024-01-27T10:03:07.223Z,0.93
2024-01-27T10:05:35.138Z,0.75
2024-01-27T10:08:02.151Z,0.90
2024-01-27T10:10:29.375Z,0.43
2024-01-27T10:12:59.840Z,0.50
2024-01-27T10:15:28.846Z,0.85
2024-01-27T10:18:09.752Z,1.17
2024-01-27T10:20:37.065Z,1.30
2024-01-27T10:23:14.155Z,0.82
2024-01-27T10:25:42.195Z,0.70
2024-01-27T10:28:13.703Z,1.08
2024-01-27T10:30:40.730Z,1.15
2024-01-27T10:33:11.970Z,0.90
2024-01-27T10:35:39.539Z,0.80
2024-01-27T10:38:08.403Z,1.45
2024-01-27T10:40:37.058Z,0.85
2024-01-27T10:43:05.311Z,1.17
2024-01-27T10:45:39.028Z,1.00
2024-01-27T10:48:08.988Z,0.93
2024-01-27T10:50:42.765Z,0.93
2024-01-27T10:53:24.357Z,0.93
2024-01-27T10:55:56.302Z,0.50
2024-01-27T10:58:24.748Z,1.62
2024-01-27T11:00:54.528Z,0.82
2024-01-27T11:03:26.865Z,1.35
2024-01-27T11:05:57.670Z,0.80
2024-01-27T11:08:29.178Z,0.88
2024-01-27T11:10:57.342Z,1.15
2024-01-27T11:13:25.776Z,1.45
2024-01-27T11:15:55.345Z,0.95
2024-01-27T11:18:23.325Z,0.77
2024-01-27T11:20:57.624Z,0.93
2024-01-27T11:23:33.446Z,1.27
2024-01-27T11:26:07.845Z,1.05
2024-01-27T11:28:36.837Z,0.65
2024-01-27T11:31:08.548Z,0.60
2024-01-27T11:33:44.546Z,1.87
2024-01-27T11:36:21.430Z,0.73
2024-01-27T11:38:48.995Z,1.15
2024-01-27T11:41:26.603Z,1.05
2024-01-27T11:43:57.709Z,1.40
2024-01-27T11:46:25.081Z,1.35
2024-01-27T11:48:52.193Z,1.05
2024-01-27T11:51:20.998Z,2.35
2024-01-27T11:53:49.951Z,0.90
2024-01-27T11:56:16.927Z,1.08
2024-01-27T11:58:51.416Z,1.10
2024-01-27T12:01:20.253Z,1.12
2024-01-27T12:03:49.972Z,0.98
2024-01-27T12:06:17.363Z,1.52
2024-01-27T12:08:49.906Z,1.20
2024-01-27T12:11:22.354Z,0.88
2024-01-27T12:13:53.281Z,0.98
2024-01-27T12:16:23.166Z,1.50
2024-01-27T12:18:53.928Z,1.20
2024-01-27T12:21:21.565Z,0.82
2024-01-27T12:23:53.281Z,0.77
2024-01-27T12:26:31.657Z,1.00
2024-01-27T12:28:59.846Z,0.73
2024-01-27T12:31:28.297Z,0.70
2024-01-27T12:33:58.235Z,1.15
2024-01-27T12:36:28.280Z,1.10
2024-01-27T12:38:56.895Z,1.30
2024-01-27T12:41:30.421Z,1.00
2024-01-27T12:43:57.947Z,0.75
2024-01-27T12:46:29.302Z,0.98
2024-01-27T12:48:58.407Z,0.80
2024-01-27T12:51:26.854Z,1.17
2024-01-27T12:53:53.892Z,1.20
2024-01-27T12:56:21.899Z,0.47
2024-01-27T12:58:49.566Z,0.93
2024-01-27T13:01:17.162Z,0.57
2024-01-27T13:03:45.908Z,1.10
2024-01-27T13:06:15.985Z,0.95
2024-01-27T13:08:43.787Z,2.12
2024-01-27T13:11:14.435Z,1.87
2024-01-27T13:13:42.580Z,1.10
2024-01-27T13:16:09.726Z,0.90
2024-01-27T13:18:38.087Z,0.70
2024-01-27T13:21:07.101Z,2.28
2024-01-27T13:23:35.462Z,2.45
2024-01-27T13:26:14.059Z,0.70
2024-01-27T13:28:49.535Z,1.15
2024-01-27T13:31:17.739Z,1.65
2024-01-27T13:33:47.264Z,0.88
2024-01-27T13:36:14.697Z,0.73
2024-01-27T13:38:42.575Z,1.10
2024-01-27T13:41:11.252Z,1.37
2024-01-27T13:43:38.922Z,0.98
2024-01-27T13:46:06.379Z,0.98
2024-01-27T13:48:34.170Z,0.68
2024-01-27T13:51:01.705Z,0.90
2024-01-27T13:53:38.768Z,1.17
2024-01-27T13:58:41.967Z,0.95
2024-01-27T14:01:09.861Z,0.80
2024-01-27T14:03:38.585Z,1.20
2024-01-27T14:06:08.745Z,1.12
2024-01-27T14:08:35.892Z,0.98
2024-01-27T14:11:03.688Z,0.90
2024-01-27T14:13:30.558Z,0.88
2024-01-27T14:15:59.130Z,1.08
2024-01-27T14:18:26.537Z,0.80
2024-01-27T14:20:54.195Z,0.73
2024-01-27T14:23:21.366Z,1.15
2024-01-27T14:25:49.147Z,1.77
2024-01-27T14:28:18.061Z,1.58
2024-01-27T14:30:46.127Z,2.08
2024-01-27T14:33:14.253Z,0.90
2024-01-27T14:35:41.528Z,1.12
2024-01-27T14:38:10.235Z,2.15
2024-01-27T14:40:38.271Z,1.40
2024-01-27T14:43:10.741Z,1.52
2024-01-27T14:45:38.211Z,0.88
2024-01-27T14:48:07.040Z,1.23
2024-01-27T14:50:34.169Z,1.08
2024-01-27T14:53:03.513Z,0.90
2024-01-27T14:55:33.786Z,1.55
2024-01-27T14:58:03.235Z,1.20
2024-01-27T15:00:30.587Z,1.00
2024-01-27T15:02:58.357Z,1.12
2024-01-27T15:05:27.054Z,1.20
2024-01-27T15:07:54.828Z,1.02
2024-01-27T15:10:24.015Z,1.02
2024-01-27T15:12:52.219Z,0.95
2024-01-27T15:15:19.457Z,1.20
2024-01-27T15:17:48.756Z,0.88
2024-01-27T15:20:16.826Z,2.08
2024-01-27T15:22:45.790Z,0.95
2024-01-27T15:25:15.986Z,1.23
2024-01-27T15:27:45.638Z,0.98
2024-01-27T15:30:15.994Z,1.02
2024-01-27T15:32:43.568Z,2.55
2024-01-27T15:35:11.255Z,1.08
2024-01-27T15:37:39.469Z,0.98
2024-01-27T15:40:10.711Z,1.33
2024-01-27T15:42:38.849Z,1.12
2024-01-27T15:45:07.093Z,1.50
2024-01-27T15:47:43.771Z,1.58
2024-01-27T15:50:14.640Z,1.42
2024-01-27T15:52:46.003Z,0.65
2024-01-27T15:55:13.901Z,0.90
2024-01-27T15:57:41.584Z,1.12
2024-01-27T16:00:12.213Z,1.45
2024-01-27T16:02:40.084Z,0.77
2024-01-27T16:05:09.037Z,1.00
2024-01-27T16:07:37.727Z,1.67
2024-01-27T16:10:05.389Z,1.73
2024-01-27T16:12:33.801Z,1.20
2024-01-27T16:15:01.435Z,1.40
2024-01-27T16:17:28.768Z,1.17
2024-01-27T16:19:57.498Z,1.95
2024-01-27T16:22:25.870Z,1.20
2024-01-27T16:24:56.362Z,1.20
2024-01-27T16:27:29.371Z,1.02
2024-01-27T16:29:58.258Z,1.15
2024-01-27T16:32:25.493Z,1.27
2024-01-27T16:34:53.908Z,1.70
2024-01-27T16:37:22.217Z,2.20
2024-01-27T16:39:51.321Z,1.77
2024-01-27T16:42:18.298Z,1.15
2024-01-27T16:44:47.894Z,1.30
2024-01-27T16:47:18.263Z,0.93
2024-01-27T16:49:45.909Z,1.00
2024-01-27T16:52:15.970Z,2.12
2024-01-27T16:54:45.647Z,0.98
2024-01-27T16:57:13.256Z,1.50
2024-01-27T16:59:42.042Z,1.60
2024-01-27T17:02:09.908Z,1.52
2024-01-27T17:04:40.721Z,1.12
2024-01-27T17:07:10.454Z,1.30
2024-01-27T17:09:39.005Z,1.35
2024-01-27T17:12:07.235Z,0.82
2024-01-27T17:14:34.683Z,1.30
2024-01-27T17:17:01.882Z,1.40
2024-01-27T17:19:30.372Z,1.83
2024-01-27T17:21:57.595Z,1.73
2024-01-27T17:24:26.283Z,1.02
2024-01-27T17:26:55.896Z,1.10
2024-01-27T17:29:22.946Z,1.40
2024-01-27T17:31:50.246Z,0.90
2024-01-27T17:34:20.957Z,1.92
2024-01-27T17:36:48.773Z,2.10
2024-01-27T17:39:17.177Z,1.73
2024-01-27T17:41:45.693Z,1.70
2024-01-27T17:44:13.874Z,1.80
2024-01-27T17:46:41.246Z,1.65
2024-01-27T17:49:09.158Z,1.80
2024-01-27T17:51:36.654Z,1.17
2024-01-27T17:54:05.084Z,1.08
2024-01-27T17:56:34.383Z,1.75
2024-01-27T17:59:02.230Z,1.90
2024-01-27T18:01:30.064Z,1.40
2024-01-27T18:03:57.491Z,1.55
2024-01-27T18:06:25.167Z,1.17
2024-01-27T18:08:52.529Z,1.60
2024-01-27T18:11:21.384Z,2.25
2024-01-27T18:13:50.117Z,1.17
2024-01-27T18:16:18.838Z,1.85
2024-01-27T18:18:46.551Z,1.48
2024-01-27T18:21:15.947Z,1.10
2024-01-27T18:23:46.812Z,2.45
2024-01-27T18:26:14.234Z,1.90
2024-01-27T18:28:42.117Z,1.58
2024-01-27T18:31:09.597Z,1.10
2024-01-27T18:33:36.997Z,1.58
2024-01-27T18:36:06.739Z,1.37
2024-01-27T18:38:33.918Z,1.33
2024-01-27T18:41:02.636Z,1.52
2024-01-27T18:43:29.993Z,1.42
2024-01-27T18:45:58.542Z,1.80
2024-01-27T18:48:28.995Z,1.95
2024-01-27T18:50:59.544Z,1.73
2024-01-27T18:53:27.499Z,1.55
2024-01-27T18:55:54.384Z,1.15
2024-01-27T18:58:23.206Z,1.85
2024-01-27T19:00:52.458Z,1.75
2024-01-27T19:03:20.156Z,1.50
2024-01-27T19:05:47.121Z,2.30
2024-01-27T19:08:14.414Z,1.20
2024-01-27T19:10:46.007Z,1.60
2024-01-27T19:13:15.791Z,1.12
2024-01-27T19:15:44.176Z,2.00
2024-01-27T19:18:11.450Z,1.77
2024-01-27T19:20:38.469Z,1.62
2024-01-27T19:23:08.476Z,1.20
2024-01-27T19:25:39.570Z,2.08
2024-01-27T19:28:07.115Z,2.05
2024-01-27T19:30:34.402Z,1.62
2024-01-27T19:33:01.737Z,2.25
2024-01-27T19:35:31.153Z,1.52
2024-01-27T19:38:01.403Z,1.87
2024-01-27T19:40:28.592Z,2.40
2024-01-27T19:42:56.020Z,2.00
2024-01-27T19:45:24.791Z,2.45
2024-01-27T19:47:53.804Z,2.12
2024-01-27T19:50:22.613Z,2.40
2024-01-27T19:52:50.929Z,2.30
2024-01-27T19:55:20.739Z,1.27
2024-01-27T19:57:48.851Z,1.40
2024-01-27T20:00:19.824Z,1.80
2024-01-27T20:02:55.249Z,1.05
2024-01-27T20:05:22.894Z,1.30
2024-01-27T20:07:50.170Z,1.95
2024-01-27T20:10:18.277Z,1.50
2024-01-27T20:12:47.121Z,1.70
2024-01-27T20:15:18.215Z,1.48
2024-01-27T20:17:48.543Z,1.95
2024-01-27T20:20:20.196Z,2.25
2024-01-27T20:22:48.177Z,1.42
2024-01-27T20:25:15.466Z,1.23
2024-01-27T20:27:42.576Z,2.22
2024-01-27T20:30:10.624Z,2.17
2024-01-27T20:32:41.809Z,0.88
2024-01-27T20:35:12.467Z,1.87
2024-01-27T20:37:40.108Z,2.00
2024-01-27T20:40:07.678Z,1.75
2024-01-27T20:42:34.787Z,2.53
2024-01-27T20:45:04.169Z,1.60
2024-01-27T20:47:31.263Z,1.52
2024-01-27T20:50:02.244Z,1.23
2024-01-27T20:52:30.519Z,2.80
2024-01-27T20:54:59.005Z,1.45
2024-01-27T20:57:27.560Z,2.25
2024-01-27T20:59:54.940Z,1.98
2024-01-27T21:02:22.989Z,1.08
2024-01-27T21:04:50.041Z,1.90
2024-01-27T21:07:19.269Z,1.40
2024-01-27T21:09:46.813Z,1.75
2024-01-27T21:12:14.809Z,1.95
2024-01-27T21:14:42.008Z,2.42
2024-01-27T21:17:09.406Z,1.65
2024-01-27T21:19:43.089Z,1.30
2024-01-27T21:22:11.087Z,1.95
2024-01-27T21:24:38.564Z,1.65
2024-01-27T21:27:06.130Z,1.95
2024-01-27T21:29:33.912Z,2.05
2024-01-27T21:32:01.308Z,1.35
2024-01-27T21:34:29.418Z,1.65
2024-01-27T21:36:57.800Z,1.60
2024-01-27T21:39:27.123Z,1.42
2024-01-27T21:41:58.721Z,3.40
2024-01-27T21:44:27.812Z,1.60
2024-01-27T21:46:55.828Z,2.00
2024-01-27T21:49:22.957Z,1.90
2024-01-27T21:51:51.350Z,1.27
2024-01-27T21:54:21.493Z,2.45
2024-01-27T21:56:49.929Z,1.87
2024-01-27T21:59:17.498Z,1.70
2024-01-27T22:01:45.741Z,1.73
2024-01-27T22:04:13.827Z,2.00
2024-01-27T22:06:41.457Z,2.10
2024-01-27T22:09:12.335Z,1.90
2024-01-27T22:11:44.486Z,2.40
2024-01-27T22:14:12.974Z,1.98
2024-01-27T22:16:40.151Z,2.10
2024-01-27T22:19:11.560Z,1.75
2024-01-27T22:21:40.112Z,1.92
2024-01-27T22:24:08.069Z,2.33
2024-01-27T22:26:39.808Z,1.48
2024-01-27T22:29:07.282Z,1.75
2024-01-27T22:31:34.672Z,1.75
2024-01-27T22:34:02.266Z,2.20
2024-01-27T22:36:29.819Z,2.00
2024-01-27T22:38:57.036Z,1.87
2024-01-27T22:41:28.250Z,1.70
2024-01-27T22:43:56.726Z,2.03
2024-01-27T22:46:25.676Z,1.52
2024-01-27T22:48:52.935Z,2.17
2024-01-27T22:51:21.043Z,1.90
2024-01-27T22:53:48.735Z,2.30
2024-01-27T22:56:16.165Z,2.33
2024-01-27T22:58:43.081Z,2.25
2024-01-27T23:01:12.117Z,1.75
2024-01-27T23:03:39.808Z,2.00
2024-01-27T23:06:07.707Z,1.58
2024-01-27T23:08:35.699Z,2.12
2024-01-27T23:11:03.156Z,2.10
2024-01-27T23:13:30.606Z,2.05
2024-01-27T23:15:58.322Z,2.03
2024-01-27T23:18:25.856Z,1.62
2024-01-27T23:20:53.429Z,1.75
2024-01-27T23:23:21.127Z,1.90
2024-01-27T23:25:49.723Z,1.70
2024-01-27T23:28:16.740Z,2.83
2024-01-27T23:30:46.432Z,2.00
2024-01-27T23:33:14.661Z,2.05
2024-01-27T23:35:42.600Z,1.73
2024-01-27T23:38:09.808Z,1.70
2024-01-27T23:40:36.739Z,2.50
2024-01-27T23:43:03.873Z,2.60
2024-01-27T23:45:32.112Z,1.77
2024-01-27T23:47:59.155Z,1.77
2024-01-27T23:50:26.905Z,2.33
2024-01-27T23:52:55.369Z,1.98
2024-01-27T23:55:22.800Z,1.90
2024-01-27T23:57:53.660Z,2.12
